Time;durP1;ratioP1;P1;durP2;ratioP2;P2;SDS_P1;SDS_P2;PMS_P1;PMS_P2;Temp;Humidity;BMP_temperature;BMP_pressure;BME280_temperature;BME280_humidity;BME280_pressure;Samples;Min_cycle;Max_cycle;Signal;HPM_P1;HPM_P2
2022/09/23 00:01:47;;;;;;;;;;;11.30;99.90;;;;;;5005274;28;19975;-67
2022/09/23 00:04:14;;;;;;;;;;;11.30;99.90;;;;;;4998247;28;19930;-68
2022/09/23 00:06:42;;;;;;;;;;;11.30;99.90;;;;;;5009362;28;19925;-69
2022/09/23 00:09:09;;;;;;;;;;;11.20;99.90;;;;;;5002860;28;19929;-69
2022/09/23 00:11:36;;;;;;;;;;;11.20;99.90;;;;;;5005797;28;19955;-69
2022/09/23 00:14:05;;;;;;;;;;;11.30;99.90;;;;;;5002512;28;19925;-68
2022/09/23 00:16:32;;;;;;;;;;;11.20;99.90;;;;;;5006795;28;20020;-68
2022/09/23 00:18:59;;;;;;;;;;;11.20;99.90;;;;;;4996415;28;19933;-68
2022/09/23 00:21:26;;;;;;;;;;;11.20;99.90;;;;;;5005832;28;19997;-68
2022/09/23 00:23:53;;;;;;;;;;;11.20;99.90;;;;;;5003667;28;19948;-68
2022/09/23 00:26:21;;;;;;;;;;;11.20;99.90;;;;;;4994169;28;20408;-68
2022/09/23 00:28:48;;;;;;;;;;;11.20;99.90;;;;;;5002378;28;19926;-68
2022/09/23 00:31:17;;;;;;;;;;;11.10;99.90;;;;;;5002927;28;19941;-69
2022/09/23 00:33:44;;;;;;;;;;;11.20;99.90;;;;;;5003402;28;19985;-68
2022/09/23 00:36:14;;;;;;;;;;;11.20;99.90;;;;;;4994372;28;19926;-69
2022/09/23 00:38:41;;;;;;;;;;;11.20;99.90;;;;;;5007904;28;19926;-68
2022/09/23 00:41:08;;;;;;;;;;;11.20;99.90;;;;;;4982873;28;19929;-69
2022/09/23 00:43:39;;;;;;;;;;;11.20;99.90;;;;;;4993329;28;19930;-69
2022/09/23 00:46:06;;;;;;;;;;;11.20;99.90;;;;;;5006739;28;19972;-68
2022/09/23 00:48:35;;;;;;;;;;;11.20;99.90;;;;;;5001864;28;20266;-68
2022/09/23 00:51:02;;;;;;;;;;;11.10;99.90;;;;;;4993400;28;19929;-69
2022/09/23 00:53:29;;;;;;;;;;;11.10;99.90;;;;;;4994414;28;19932;-69
2022/09/23 00:55:57;;;;;;;;;;;11.00;99.90;;;;;;5004078;28;19933;-69
2022/09/23 00:58:25;;;;;;;;;;;11.00;99.90;;;;;;4995250;28;19930;-68
2022/09/23 01:00:53;;;;;;;;;;;11.00;99.90;;;;;;4994301;28;19964;-69
2022/09/23 01:03:21;;;;;;;;;;;11.00;99.90;;;;;;5004982;28;19930;-68
2022/09/23 01:05:50;;;;;;;;;;;11.00;99.90;;;;;;4987175;28;20301;-69
2022/09/23 01:08:17;;;;;;;;;;;10.90;99.90;;;;;;5004901;28;19930;-68
2022/09/23 01:10:49;;;;;;;;;;;10.80;99.90;;;;;;5001261;28;19925;-68
2022/09/23 01:13:20;;;;;;;;;;;10.70;99.90;;;;;;4990844;28;20404;-69
2022/09/23 01:15:48;;;;;;;;;;;10.70;99.90;;;;;;4995841;28;19934;-68
2022/09/23 01:18:22;;;;;;;;;;;10.70;99.90;;;;;;5008996;28;19925;-68
2022/09/23 01:20:58;;;;;;;;;;;10.60;99.90;;;;;;5000657;28;19933;-68
2022/09/23 01:24:00;;;;;;;;;;;10.60;99.90;;;;;;4999377;28;19936;-68
2022/09/23 01:26:48;;;;;;;;;;;10.60;99.90;;;;;;4998560;28;19925;-68
2022/09/23 01:29:37;;;;;;;;;;;10.60;99.90;;;;;;4992000;28;20277;-69
2022/09/23 01:32:12;;;;;;;;;;;10.60;99.90;;;;;;5005468;28;19953;-69
2022/09/23 01:34:44;;;;;;;;;;;10.60;99.90;;;;;;4991898;28;19926;-68
2022/09/23 01:37:14;;;;;;;;;;;10.60;99.90;;;;;;5009212;28;19948;-68
2022/09/23 01:39:44;;;;;;;;;;;10.50;99.90;;;;;;5007452;28;19976;-69
2022/09/23 01:42:16;;;;;;;;;;;10.40;99.90;;;;;;4991713;28;19926;-70
2022/09/23 01:44:47;;;;;;;;;;;10.40;99.90;;;;;;5000583;28;19926;-68
2022/09/23 01:47:16;;;;;;;;;;;10.30;99.90;;;;;;4988881;28;19925;-69
2022/09/23 01:49:45;;;;;;;;;;;10.30;99.90;;;;;;4999268;28;19925;-68
2022/09/23 01:52:15;;;;;;;;;;;10.30;99.90;;;;;;4989356;28;19930;-67
2022/09/23 01:54:44;;;;;;;;;;;10.20;99.90;;;;;;4995195;28;20026;-68
2022/09/23 01:57:12;;;;;;;;;;;10.20;99.90;;;;;;4986050;28;19976;-68
2022/09/23 01:59:40;;;;;;;;;;;10.20;99.90;;;;;;5000320;28;19925;-68
2022/09/23 02:02:09;;;;;;;;;;;10.20;99.90;;;;;;5003205;28;20384;-68
2022/09/23 02:04:40;;;;;;;;;;;10.20;99.90;;;;;;4996693;28;19984;-68
2022/09/23 02:07:09;;;;;;;;;;;10.20;99.90;;;;;;5002112;28;19972;-68
2022/09/23 02:09:39;;;;;;;;;;;10.10;99.90;;;;;;5002781;28;19929;-69
2022/09/23 02:12:11;;;;;;;;;;;10.10;99.90;;;;;;4999011;28;19929;-68
2022/09/23 02:14:41;;;;;;;;;;;10.10;99.90;;;;;;4996731;28;20016;-69
2022/09/23 02:17:09;;;;;;;;;;;10.00;99.90;;;;;;5002879;28;20388;-68
2022/09/23 02:19:42;;;;;;;;;;;10.00;99.90;;;;;;5003599;28;20392;-69
2022/09/23 02:22:10;;;;;;;;;;;10.00;99.90;;;;;;4995767;28;19926;-69
2022/09/23 02:24:38;;;;;;;;;;;10.00;99.90;;;;;;4996717;28;19929;-68
2022/09/23 02:27:10;;;;;;;;;;;10.00;99.90;;;;;;5002402;28;19991;-69
2022/09/23 02:29:43;;;;;;;;;;;10.00;99.90;;;;;;4995927;28;19933;-68
2022/09/23 02:32:12;;;;;;;;;;;9.90;99.90;;;;;;5013211;28;19925;-69
2022/09/23 02:34:42;;;;;;;;;;;9.80;99.90;;;;;;4996966;28;19932;-69
2022/09/23 02:37:15;;;;;;;;;;;9.80;99.90;;;;;;5010035;28;19929;-69
2022/09/23 02:39:47;;;;;;;;;;;9.80;99.90;;;;;;4996183;28;19972;-68
2022/09/23 02:42:15;;;;;;;;;;;9.80;99.90;;;;;;4987179;28;20336;-66
2022/09/23 02:44:42;;;;;;;;;;;9.70;99.90;;;;;;4995794;28;19973;-68
2022/09/23 02:47:09;;;;;;;;;;;9.70;99.90;;;;;;4991683;28;20312;-68
2022/09/23 02:49:36;;;;;;;;;;;9.70;99.90;;;;;;4999425;28;20483;-68
2022/09/23 02:52:07;;;;;;;;;;;9.60;99.90;;;;;;4987925;28;19926;-68
2022/09/23 02:54:34;;;;;;;;;;;9.60;99.90;;;;;;4995873;28;20392;-69
2022/09/23 02:57:02;;;;;;;;;;;9.50;99.90;;;;;;4993421;28;20404;-68
2022/09/23 02:59:29;;;;;;;;;;;9.50;99.90;;;;;;5001944;28;19926;-68
2022/09/23 03:02:05;;;;;;;;;;;9.40;99.90;;;;;;4999649;28;19984;-69
2022/09/23 03:04:41;;;;;;;;;;;9.40;99.90;;;;;;4989588;28;19929;-68
2022/09/23 03:07:14;;;;;;;;;;;9.40;99.90;;;;;;4998058;28;20003;-68
2022/09/23 03:09:44;;;;;;;;;;;9.40;99.90;;;;;;4996395;28;19930;-68
2022/09/23 03:12:14;;;;;;;;;;;9.40;99.90;;;;;;4990973;28;19933;-68
2022/09/23 03:14:44;;;;;;;;;;;9.30;99.90;;;;;;4994095;28;19938;-67
2022/09/23 03:17:14;;;;;;;;;;;9.30;99.90;;;;;;4994941;28;19932;-68
2022/09/23 03:19:43;;;;;;;;;;;9.30;99.90;;;;;;4995016;28;20004;-69
2022/09/23 03:22:12;;;;;;;;;;;9.30;99.90;;;;;;5016294;28;19926;-69
2022/09/23 03:24:43;;;;;;;;;;;9.20;99.90;;;;;;4995332;28;19929;-68
2022/09/23 03:27:13;;;;;;;;;;;9.10;99.90;;;;;;5015469;28;19926;-69
2022/09/23 03:29:41;;;;;;;;;;;9.10;99.90;;;;;;4998896;28;19968;-69
2022/09/23 03:32:08;;;;;;;;;;;9.10;99.90;;;;;;4992989;28;20393;-68
2022/09/23 03:34:36;;;;;;;;;;;9.00;99.90;;;;;;4995987;28;19933;-69
2022/09/23 03:37:06;;;;;;;;;;;9.00;99.90;;;;;;5000329;28;19976;-68
2022/09/23 03:39:39;;;;;;;;;;;9.10;99.90;;;;;;5001580;28;19930;-69
2022/09/23 03:42:09;;;;;;;;;;;9.00;99.90;;;;;;5006082;28;19945;-68
2022/09/23 03:44:37;;;;;;;;;;;9.00;99.90;;;;;;4993250;28;19930;-68
2022/09/23 03:47:04;;;;;;;;;;;8.90;99.90;;;;;;4993837;28;19929;-68
2022/09/23 03:49:34;;;;;;;;;;;8.80;99.90;;;;;;5001765;28;19957;-69
2022/09/23 03:52:02;;;;;;;;;;;8.80;99.90;;;;;;4987222;28;19977;-69
2022/09/23 03:54:29;;;;;;;;;;;8.70;99.90;;;;;;4998646;28;20012;-65
2022/09/23 03:56:57;;;;;;;;;;;8.70;99.90;;;;;;4996961;28;19929;-69
2022/09/23 03:59:24;;;;;;;;;;;8.70;99.90;;;;;;4994103;28;19961;-68
2022/09/23 04:01:51;;;;;;;;;;;8.60;99.90;;;;;;4994873;28;19934;-69
2022/09/23 04:04:18;;;;;;;;;;;8.60;99.90;;;;;;4999970;28;19929;-66
2022/09/23 04:06:45;;;;;;;;;;;8.60;99.90;;;;;;5002899;28;19926;-66
2022/09/23 04:09:11;;;;;;;;;;;8.60;99.90;;;;;;5002603;28;20380;-66
2022/09/23 04:11:38;;;;;;;;;;;8.60;99.90;;;;;;4991554;28;20339;-66
2022/09/23 04:14:07;;;;;;;;;;;8.60;99.90;;;;;;5004162;28;19996;-66
2022/09/23 04:16:33;;;;;;;;;;;8.50;99.90;;;;;;5005023;28;19926;-66
2022/09/23 04:19:00;;;;;;;;;;;8.40;99.90;;;;;;4995301;28;19926;-64
2022/09/23 04:21:29;;;;;;;;;;;8.40;99.90;;;;;;4997997;28;19933;-67
2022/09/23 04:23:55;;;;;;;;;;;8.30;99.90;;;;;;5001515;28;19965;-69
2022/09/23 04:26:22;;;;;;;;;;;8.30;99.90;;;;;;5005409;28;19925;-69
2022/09/23 04:28:49;;;;;;;;;;;8.30;99.90;;;;;;5002715;28;20343;-66
2022/09/23 04:31:17;;;;;;;;;;;8.20;99.90;;;;;;5007417;28;19929;-68
2022/09/23 04:33:44;;;;;;;;;;;8.20;99.90;;;;;;5002781;28;20471;-67
2022/09/23 04:36:11;;;;;;;;;;;8.20;99.90;;;;;;5002466;28;19926;-67
2022/09/23 04:38:37;;;;;;;;;;;8.20;99.90;;;;;;5005483;28;19933;-68
2022/09/23 04:41:08;;;;;;;;;;;8.20;99.90;;;;;;4998619;28;19934;-67
2022/09/23 04:43:34;;;;;;;;;;;8.20;99.90;;;;;;4990539;28;19932;-68
2022/09/23 04:46:02;;;;;;;;;;;8.20;99.90;;;;;;5002337;28;19925;-67
2022/09/23 04:48:30;;;;;;;;;;;8.20;99.90;;;;;;4994066;28;19975;-68
2022/09/23 04:51:01;;;;;;;;;;;8.10;99.90;;;;;;5002990;28;19930;-67
2022/09/23 04:53:28;;;;;;;;;;;8.10;99.90;;;;;;5000738;28;19929;-68
2022/09/23 04:56:00;;;;;;;;;;;8.10;99.90;;;;;;5002294;28;19925;-69
2022/09/23 04:58:27;;;;;;;;;;;8.10;99.90;;;;;;5003486;28;20443;-68
2022/09/23 05:00:56;;;;;;;;;;;8.10;99.90;;;;;;5003148;28;20285;-67
2022/09/23 05:03:23;;;;;;;;;;;8.10;99.90;;;;;;4991539;28;20024;-68
2022/09/23 05:05:54;;;;;;;;;;;8.00;99.90;;;;;;4997444;28;20017;-70
2022/09/23 05:08:20;;;;;;;;;;;8.00;99.90;;;;;;4993167;28;20017;-69
2022/09/23 05:10:48;;;;;;;;;;;7.90;99.90;;;;;;4998711;28;19940;-70
2022/09/23 05:13:15;;;;;;;;;;;7.90;99.90;;;;;;4999499;28;19936;-69
2022/09/23 05:15:41;;;;;;;;;;;8.00;99.90;;;;;;5000410;28;19929;-69
2022/09/23 05:18:08;;;;;;;;;;;8.00;99.90;;;;;;5001882;28;19949;-70
2022/09/23 05:20:35;;;;;;;;;;;7.90;99.90;;;;;;4999446;28;20401;-69
2022/09/23 05:23:03;;;;;;;;;;;8.00;99.90;;;;;;5000948;28;19926;-70
2022/09/23 05:25:30;;;;;;;;;;;7.90;99.90;;;;;;4996690;28;20345;-68
2022/09/23 05:27:57;;;;;;;;;;;7.90;99.90;;;;;;4997052;28;19926;-71
2022/09/23 05:30:23;;;;;;;;;;;7.90;99.90;;;;;;4999766;28;19981;-70
2022/09/23 05:32:50;;;;;;;;;;;7.90;99.90;;;;;;5005686;28;19930;-69
2022/09/23 05:35:17;;;;;;;;;;;8.00;99.90;;;;;;5000942;28;19926;-70
2022/09/23 05:37:44;;;;;;;;;;;8.00;99.90;;;;;;5002336;28;19925;-69
2022/09/23 05:40:12;;;;;;;;;;;8.10;99.90;;;;;;4996717;28;19926;-69
2022/09/23 05:42:39;;;;;;;;;;;8.10;99.90;;;;;;5002603;28;19926;-69
2022/09/23 05:45:06;;;;;;;;;;;8.20;99.90;;;;;;5002275;28;19925;-70
2022/09/23 05:47:33;;;;;;;;;;;8.20;99.90;;;;;;4998084;28;19926;-70
2022/09/23 05:50:00;;;;;;;;;;;8.30;99.90;;;;;;4998745;28;19932;-70
2022/09/23 05:52:26;;;;;;;;;;;8.30;99.90;;;;;;4999792;28;19925;-72
2022/09/23 05:54:53;;;;;;;;;;;8.30;99.90;;;;;;4998922;28;19925;-69
2022/09/23 05:57:21;;;;;;;;;;;8.30;99.90;;;;;;5001653;28;19930;-70
2022/09/23 05:59:48;;;;;;;;;;;8.40;99.90;;;;;;5000625;28;19929;-71
2022/09/23 06:02:15;;;;;;;;;;;8.50;99.90;;;;;;4994892;28;19930;-70
2022/09/23 06:04:42;;;;;;;;;;;8.60;99.90;;;;;;4995343;28;19926;-70
2022/09/23 06:07:09;;;;;;;;;;;8.70;99.90;;;;;;4997082;28;19929;-69
2022/09/23 06:09:36;;;;;;;;;;;8.70;99.90;;;;;;4999839;28;19926;-69
2022/09/23 06:12:03;;;;;;;;;;;8.80;99.90;;;;;;4992192;28;19933;-71
2022/09/23 06:14:31;;;;;;;;;;;8.90;99.90;;;;;;5003803;28;19933;-69
2022/09/23 06:16:58;;;;;;;;;;;9.00;99.90;;;;;;4996942;28;19968;-69
2022/09/23 06:19:25;;;;;;;;;;;9.10;99.90;;;;;;4994641;28;19926;-69
2022/09/23 06:21:52;;;;;;;;;;;9.30;99.90;;;;;;5001000;28;19933;-69
2022/09/23 06:24:18;;;;;;;;;;;9.40;99.90;;;;;;5000876;28;19933;-71
2022/09/23 06:26:45;;;;;;;;;;;9.50;99.90;;;;;;5005489;28;19929;-69
2022/09/23 06:29:13;;;;;;;;;;;9.60;99.90;;;;;;5000999;28;19929;-69
2022/09/23 06:31:42;;;;;;;;;;;9.70;99.90;;;;;;5003119;28;20303;-71
2022/09/23 06:34:09;;;;;;;;;;;9.80;99.90;;;;;;5000934;28;19956;-69
2022/09/23 06:36:36;;;;;;;;;;;10.00;99.90;;;;;;4995626;28;19925;-69
2022/09/23 06:39:03;;;;;;;;;;;10.10;99.90;;;;;;5002282;28;19930;-69
2022/09/23 06:41:30;;;;;;;;;;;10.30;99.90;;;;;;4995577;28;19930;-69
2022/09/23 06:43:58;;;;;;;;;;;10.40;99.90;;;;;;4996853;28;19934;-70
2022/09/23 06:46:24;;;;;;;;;;;10.50;99.90;;;;;;5001640;28;19925;-68
2022/09/23 06:48:53;;;;;;;;;;;10.60;99.90;;;;;;4995547;28;19930;-69
2022/09/23 06:51:20;;;;;;;;;;;10.80;99.90;;;;;;4999710;28;19930;-69
2022/09/23 06:53:47;;;;;;;;;;;10.90;99.90;;;;;;4998378;28;19967;-69
2022/09/23 06:56:15;;;;;;;;;;;11.00;99.90;;;;;;5003116;28;20467;-68
2022/09/23 06:58:42;;;;;;;;;;;11.10;99.90;;;;;;4997386;28;19933;-69
2022/09/23 07:01:10;;;;;;;;;;;11.30;99.90;;;;;;4994951;28;19930;-70
2022/09/23 07:03:37;;;;;;;;;;;11.40;99.90;;;;;;4995882;28;19933;-69
2022/09/23 07:06:06;;;;;;;;;;;11.60;99.90;;;;;;5004036;28;19929;-68
2022/09/23 07:08:33;;;;;;;;;;;11.70;99.90;;;;;;4998928;28;19949;-69
2022/09/23 07:11:01;;;;;;;;;;;11.80;99.90;;;;;;4992623;28;19973;-69
2022/09/23 07:13:28;;;;;;;;;;;11.90;99.90;;;;;;4999328;28;19930;-69
2022/09/23 07:15:57;;;;;;;;;;;12.10;99.90;;;;;;4999315;28;19932;-69
2022/09/23 07:18:24;;;;;;;;;;;12.20;99.90;;;;;;4993588;28;20025;-69
2022/09/23 07:20:51;;;;;;;;;;;12.40;99.90;;;;;;5002496;28;20359;-69
2022/09/23 07:23:20;;;;;;;;;;;12.50;99.90;;;;;;4997216;28;19926;-70
2022/09/23 07:25:49;;;;;;;;;;;12.60;99.90;;;;;;4998239;28;19940;-69
2022/09/23 07:28:16;;;;;;;;;;;12.70;99.90;;;;;;4994668;28;19934;-69
2022/09/23 07:30:43;;;;;;;;;;;12.80;99.90;;;;;;4996576;28;19953;-70
2022/09/23 07:33:10;;;;;;;;;;;13.00;99.90;;;;;;5003594;28;19933;-69
2022/09/23 07:35:38;;;;;;;;;;;13.10;99.90;;;;;;4998644;28;19929;-70
2022/09/23 07:38:05;;;;;;;;;;;13.10;99.90;;;;;;5008018;28;19933;-70
2022/09/23 07:40:33;;;;;;;;;;;13.20;99.90;;;;;;4999449;28;19980;-70
2022/09/23 07:43:00;;;;;;;;;;;13.20;99.90;;;;;;4998377;28;19926;-69
2022/09/23 07:45:27;;;;;;;;;;;13.30;99.90;;;;;;4996300;28;19932;-70
2022/09/23 07:47:55;;;;;;;;;;;13.40;99.90;;;;;;5004749;28;19972;-70
2022/09/23 07:50:22;;;;;;;;;;;13.50;99.90;;;;;;5005501;28;19947;-71
2022/09/23 07:52:51;;;;;;;;;;;13.60;99.90;;;;;;5001964;28;20384;-69
2022/09/23 07:55:18;;;;;;;;;;;13.70;99.90;;;;;;4996283;28;19926;-71
2022/09/23 07:57:46;;;;;;;;;;;13.80;99.90;;;;;;4997212;28;19926;-70
2022/09/23 08:00:14;;;;;;;;;;;14.00;99.90;;;;;;5008034;28;19925;-69
2022/09/23 08:02:41;;;;;;;;;;;14.20;99.90;;;;;;5003557;28;19926;-69
2022/09/23 08:05:08;;;;;;;;;;;14.40;99.90;;;;;;4997939;28;19926;-69
2022/09/23 08:07:35;;;;;;;;;;;14.50;99.90;;;;;;5001862;28;19933;-69
2022/09/23 08:10:02;;;;;;;;;;;14.60;99.90;;;;;;4998492;28;19925;-69
2022/09/23 08:12:29;;;;;;;;;;;14.70;99.90;;;;;;5002144;28;19932;-70
2022/09/23 08:14:59;;;;;;;;;;;14.90;99.90;;;;;;5001806;28;19926;-70
2022/09/23 08:17:26;;;;;;;;;;;15.00;99.90;;;;;;4998928;28;19933;-69
2022/09/23 08:19:53;;;;;;;;;;;15.10;99.90;;;;;;4993658;28;20032;-70
2022/09/23 08:22:19;;;;;;;;;;;15.20;99.90;;;;;;5001137;28;19930;-70
2022/09/23 08:24:46;;;;;;;;;;;15.40;99.90;;;;;;5000800;28;19926;-70
2022/09/23 08:27:13;;;;;;;;;;;15.40;99.90;;;;;;4997887;28;19933;-70
2022/09/23 08:29:40;;;;;;;;;;;15.50;99.90;;;;;;4999106;28;19934;-70
2022/09/23 08:32:08;;;;;;;;;;;15.70;99.90;;;;;;4997564;28;19978;-70
2022/09/23 08:34:35;;;;;;;;;;;15.70;99.90;;;;;;5000576;28;19925;-70
2022/09/23 08:37:02;;;;;;;;;;;15.80;99.90;;;;;;5001434;28;20013;-69
2022/09/23 08:39:29;;;;;;;;;;;15.90;99.90;;;;;;5005170;28;19925;-71
2022/09/23 08:42:02;;;;;;;;;;;16.00;99.90;;;;;;4999864;28;19972;-70
2022/09/23 08:44:32;;;;;;;;;;;16.10;99.90;;;;;;4996527;28;19933;-70
2022/09/23 08:47:06;;;;;;;;;;;16.10;99.90;;;;;;5003975;28;19925;-69
2022/09/23 08:49:38;;;;;;;;;;;16.30;99.90;;;;;;5005652;28;19932;-70
2022/09/23 08:52:07;;;;;;;;;;;16.40;99.90;;;;;;5000130;28;19981;-70
2022/09/23 08:54:34;;;;;;;;;;;16.50;99.90;;;;;;5000599;28;19925;-69
2022/09/23 08:57:02;;;;;;;;;;;16.60;99.90;;;;;;4999028;28;20400;-70
2022/09/23 08:59:31;;;;;;;;;;;16.70;99.90;;;;;;4993611;28;19976;-71
2022/09/23 09:01:59;;;;;;;;;;;16.90;99.90;;;;;;4998972;28;19925;-70
2022/09/23 09:04:27;;;;;;;;;;;17.20;99.90;;;;;;5005632;28;19972;-69
2022/09/23 09:06:57;;;;;;;;;;;17.40;99.90;;;;;;5000554;28;19988;-70
2022/09/23 09:09:26;;;;;;;;;;;17.70;99.90;;;;;;4997590;28;19929;-70
2022/09/23 09:11:57;;;;;;;;;;;18.00;99.90;;;;;;5017956;28;19926;-71
2022/09/23 09:14:26;;;;;;;;;;;18.10;99.90;;;;;;4989362;28;19936;-70
2022/09/23 09:16:57;;;;;;;;;;;18.30;99.90;;;;;;5014492;28;19964;-70
2022/09/23 09:19:32;;;;;;;;;;;18.40;99.90;;;;;;4996751;28;19956;-71
2022/09/23 09:22:01;;;;;;;;;;;18.50;99.90;;;;;;5019205;28;19929;-69
2022/09/23 09:24:30;;;;;;;;;;;18.30;99.90;;;;;;4997221;28;19941;-72
2022/09/23 09:26:58;;;;;;;;;;;18.10;99.90;;;;;;5002346;28;19929;-69
2022/09/23 09:29:26;;;;;;;;;;;18.00;99.90;;;;;;4986664;28;19929;-70
2022/09/23 09:31:53;;;;;;;;;;;18.20;99.90;;;;;;4996429;28;19926;-70
2022/09/23 09:34:25;;;;;;;;;;;18.50;99.90;;;;;;4988418;28;19942;-70
2022/09/23 09:36:58;;;;;;;;;;;18.50;99.90;;;;;;4990056;28;19926;-71
2022/09/23 09:39:27;;;;;;;;;;;18.70;99.90;;;;;;4983763;28;19934;-70
2022/09/23 09:41:58;;;;;;;;;;;18.70;99.90;;;;;;4981363;28;19950;-68
2022/09/23 09:44:26;;;;;;;;;;;18.50;99.90;;;;;;4983822;28;20408;-71
2022/09/23 09:47:00;;;;;;;;;;;18.80;99.90;;;;;;4990951;28;19932;-69
2022/09/23 09:49:32;;;;;;;;;;;18.80;99.90;;;;;;4988820;28;19950;-69
2022/09/23 09:52:19;;;;;;;;;;;19.00;99.90;;;;;;4991485;28;19926;-69
2022/09/23 09:54:48;;;;;;;;;;;18.90;99.90;;;;;;4998879;28;19929;-69
2022/09/23 09:57:18;;;;;;;;;;;19.20;99.90;;;;;;4994798;28;19977;-69
2022/09/23 09:59:45;;;;;;;;;;;19.30;99.90;;;;;;5000251;28;20347;-69
2022/09/23 10:02:12;;;;;;;;;;;19.30;99.90;;;;;;4999927;28;19941;-67
2022/09/23 10:04:40;;;;;;;;;;;19.40;99.90;;;;;;5001433;28;19926;-70
2022/09/23 10:07:11;;;;;;;;;;;19.40;99.90;;;;;;4994873;28;19930;-70
2022/09/23 10:09:38;;;;;;;;;;;19.60;99.90;;;;;;4997281;28;19929;-69
2022/09/23 10:12:17;;;;;;;;;;;19.40;99.90;;;;;;5004277;28;19925;-69
2022/09/23 10:14:44;;;;;;;;;;;19.30;99.90;;;;;;5008894;28;19930;-67
2022/09/23 10:17:15;;;;;;;;;;;19.50;99.90;;;;;;4994356;28;19929;-69
2022/09/23 10:19:45;;;;;;;;;;;19.50;99.90;;;;;;4995726;28;19925;-68
2022/09/23 10:22:16;;;;;;;;;;;19.80;99.90;;;;;;5008051;28;19925;-66
2022/09/23 10:24:47;;;;;;;;;;;20.10;99.90;;;;;;4998997;28;19925;-70
2022/09/23 10:27:16;;;;;;;;;;;20.40;99.90;;;;;;4992191;28;19930;-69
2022/09/23 10:29:49;;;;;;;;;;;20.10;99.90;;;;;;4998485;28;19926;-68
2022/09/23 10:32:25;;;;;;;;;;;20.40;99.90;;;;;;4992515;28;19925;-69
2022/09/23 10:34:53;;;;;;;;;;;20.30;99.90;;;;;;4997603;28;19995;-70
2022/09/23 10:37:22;;;;;;;;;;;20.50;99.90;;;;;;4998158;28;20289;-69
2022/09/23 10:48:23;;;;;;;;;;;20.30;99.90;;;;;;4993427;28;19926;-70
2022/09/23 10:50:51;;;;;;;;;;;20.40;99.90;;;;;;4997018;28;19969;-69
2022/09/23 10:53:21;;;;;;;;;;;20.10;99.90;;;;;;4994932;28;20011;-70
2022/09/23 10:56:04;;;;;;;;;;;20.30;99.90;;;;;;4993034;28;19929;-69
2022/09/23 10:58:41;;;;;;;;;;;20.20;99.90;;;;;;4995416;28;19929;-69
2022/09/23 11:01:12;;;;;;;;;;;20.30;99.90;;;;;;5000326;28;19930;-69
2022/09/23 11:03:55;;;;;;;;;;;20.40;99.90;;;;;;4996437;28;19998;-69
2022/09/23 11:06:26;;;;;;;;;;;20.50;99.90;;;;;;4998387;28;19960;-69
2022/09/23 11:08:58;;;;;;;;;;;20.50;99.90;;;;;;4981382;28;19973;-69
2022/09/23 11:11:33;;;;;;;;;;;20.20;99.90;;;;;;5002311;28;19925;-69
2022/09/23 11:14:15;;;;;;;;;;;19.90;99.90;;;;;;4999488;28;19926;-68
2022/09/23 11:16:51;;;;;;;;;;;20.00;99.90;;;;;;5006543;28;19925;-67
2022/09/23 11:19:32;;;;;;;;;;;20.10;99.90;;;;;;4990379;28;20289;-67
2022/09/23 11:22:17;;;;;;;;;;;20.00;99.90;;;;;;5004269;28;20033;-68
2022/09/23 11:24:51;;;;;;;;;;;20.30;99.90;;;;;;4990996;28;19930;-69
2022/09/23 11:27:26;;;;;;;;;;;21.00;99.90;;;;;;4989748;28;20024;-68
2022/09/23 11:30:01;;;;;;;;;;;21.10;99.90;;;;;;4996864;28;19926;-68
2022/09/23 11:32:52;;;;;;;;;;;21.10;99.90;;;;;;4996364;28;19929;-68
2022/09/23 11:35:21;;;;;;;;;;;20.80;99.90;;;;;;4977310;28;19926;-68
2022/09/23 11:37:51;;;;;;;;;;;21.00;99.90;;;;;;4991380;28;19925;-68
2022/09/23 11:40:20;;;;;;;;;;;21.10;99.90;;;;;;4995382;28;19949;-68
2022/09/23 11:42:53;;;;;;;;;;;21.20;99.90;;;;;;5001585;28;19929;-68
2022/09/23 11:45:24;;;;;;;;;;;22.00;99.90;;;;;;5001240;28;19933;-68
2022/09/23 11:47:52;;;;;;;;;;;22.50;99.90;;;;;;5001382;28;19926;-69
2022/09/23 11:50:21;;;;;;;;;;;22.60;99.90;;;;;;4995120;28;19932;-69
2022/09/23 11:52:49;;;;;;;;;;;22.90;99.90;;;;;;4998184;28;19932;-69
2022/09/23 11:55:18;;;;;;;;;;;22.60;99.90;;;;;;4996121;28;19929;-69
2022/09/23 11:57:46;;;;;;;;;;;23.20;99.90;;;;;;4994277;28;19926;-69
2022/09/23 12:00:16;;;;;;;;;;;23.20;99.90;;;;;;4992036;28;19933;-69
2022/09/23 12:02:50;;;;;;;;;;;22.20;99.90;;;;;;4996145;28;19926;-69
2022/09/23 12:05:19;;;;;;;;;;;22.90;99.90;;;;;;5004895;28;20393;-69
2022/09/23 12:07:52;;;;;;;;;;;24.20;99.90;;;;;;4997038;28;19926;-69
2022/09/23 12:10:19;;;;;;;;;;;23.90;99.90;;;;;;5001080;28;19934;-68
2022/09/23 12:12:51;;;;;;;;;;;23.20;99.90;;;;;;5004819;28;20360;-68
2022/09/23 12:15:24;;;;;;;;;;;22.60;99.90;;;;;;4994018;28;19933;-68
2022/09/23 12:17:59;;;;;;;;;;;21.60;99.90;;;;;;4996413;28;19926;-69
2022/09/23 12:20:32;;;;;;;;;;;20.80;99.90;;;;;;5002288;28;19925;-69
2022/09/23 12:23:04;;;;;;;;;;;20.60;99.90;;;;;;5003935;28;19926;-69
2022/09/23 12:25:37;;;;;;;;;;;20.70;99.90;;;;;;5003270;28;19932;-69
2022/09/23 12:28:06;;;;;;;;;;;20.50;99.90;;;;;;4993403;28;19934;-68
2022/09/23 12:30:36;;;;;;;;;;;20.60;99.90;;;;;;4996108;28;19976;-69
2022/09/23 12:33:14;;;;;;;;;;;20.20;99.90;;;;;;4999722;28;19930;-69
2022/09/23 12:35:43;;;;;;;;;;;20.40;99.90;;;;;;4997928;28;19926;-69
2022/09/23 12:38:15;;;;;;;;;;;20.30;99.90;;;;;;4993682;28;19926;-68
2022/09/23 12:40:43;;;;;;;;;;;20.40;99.90;;;;;;4997439;28;19926;-68
2022/09/23 12:43:16;;;;;;;;;;;20.40;99.90;;;;;;4993493;28;20456;-68
2022/09/23 12:45:42;;;;;;;;;;;20.40;99.90;;;;;;5004307;28;19933;-69
2022/09/23 12:48:43;;;;;;;;;;;20.10;99.90;;;;;;4999544;28;19933;-69
2022/09/23 12:51:15;;;;;;;;;;;20.10;99.90;;;;;;4997395;28;20021;-69
2022/09/23 12:53:55;;;;;;;;;;;20.00;99.90;;;;;;4999739;28;19925;-69
2022/09/23 12:56:24;;;;;;;;;;;19.80;99.90;;;;;;4983206;28;19981;-69
2022/09/23 12:58:57;;;;;;;;;;;19.70;99.90;;;;;;4990533;28;19972;-67
2022/09/23 13:01:25;;;;;;;;;;;19.60;99.90;;;;;;4995934;28;19945;-70
2022/09/23 13:06:40;;;;;;;;;;;19.70;99.90;;;;;;4997348;28;19930;-68
2022/09/23 13:09:08;;;;;;;;;;;19.30;99.90;;;;;;4996762;28;19929;-69
2022/09/23 13:11:39;;;;;;;;;;;19.20;99.90;;;;;;5007338;28;19925;-69
2022/09/23 13:14:06;;;;;;;;;;;19.20;99.90;;;;;;4997735;28;19985;-69
2022/09/23 13:16:35;;;;;;;;;;;19.10;99.90;;;;;;5006192;28;19930;-69
2022/09/23 13:19:04;;;;;;;;;;;19.10;99.90;;;;;;5000936;28;20274;-69
2022/09/23 13:21:51;;;;;;;;;;;19.00;99.90;;;;;;5000766;28;19925;-68
2022/09/23 13:24:19;;;;;;;;;;;19.10;99.90;;;;;;4993780;28;19929;-69
2022/09/23 13:26:46;;;;;;;;;;;19.00;99.90;;;;;;5008242;28;20016;-68
2022/09/23 13:29:36;;;;;;;;;;;18.90;99.90;;;;;;4996388;28;19937;-69
2022/09/23 13:32:04;;;;;;;;;;;19.10;99.90;;;;;;5022032;28;19933;-70
2022/09/23 13:34:33;;;;;;;;;;;19.20;99.90;;;;;;4991549;28;20490;-69
2022/09/23 13:37:11;;;;;;;;;;;19.20;99.90;;;;;;5000200;28;19975;-69
2022/09/23 13:39:38;;;;;;;;;;;19.30;99.90;;;;;;4983111;28;20303;-69
2022/09/23 13:42:07;;;;;;;;;;;19.40;99.90;;;;;;5007140;28;19933;-68
2022/09/23 13:44:34;;;;;;;;;;;19.70;99.90;;;;;;5000958;28;19936;-69
2022/09/23 13:47:02;;;;;;;;;;;20.00;99.90;;;;;;4991658;28;19932;-69
2022/09/23 13:49:32;;;;;;;;;;;20.10;99.90;;;;;;4990578;28;19925;-68
2022/09/23 13:52:01;;;;;;;;;;;20.10;99.90;;;;;;5002643;28;19926;-69
2022/09/23 13:54:29;;;;;;;;;;;20.20;99.90;;;;;;5001512;28;20380;-68
2022/09/23 13:56:56;;;;;;;;;;;20.30;99.90;;;;;;4997325;28;19933;-68
2022/09/23 13:59:24;;;;;;;;;;;20.10;99.90;;;;;;5003041;28;19947;-70
2022/09/23 14:02:01;;;;;;;;;;;20.00;99.90;;;;;;4990888;28;19925;-69
2022/09/23 14:04:28;;;;;;;;;;;19.70;99.90;;;;;;4987516;28;19933;-69
2022/09/23 14:06:55;;;;;;;;;;;19.80;99.90;;;;;;4995506;28;19930;-69
2022/09/23 14:09:26;;;;;;;;;;;19.70;99.90;;;;;;4992384;28;19926;-68
2022/09/23 14:11:53;;;;;;;;;;;19.40;99.90;;;;;;5001192;28;19932;-69
2022/09/23 14:14:22;;;;;;;;;;;19.30;99.90;;;;;;5002559;28;19926;-68
2022/09/23 14:16:49;;;;;;;;;;;19.20;99.90;;;;;;5000450;28;20024;-69
2022/09/23 14:19:17;;;;;;;;;;;19.00;99.90;;;;;;5003761;28;19925;-68
2022/09/23 14:21:47;;;;;;;;;;;18.90;99.90;;;;;;5001683;28;19929;-69
2022/09/23 14:24:17;;;;;;;;;;;18.70;99.90;;;;;;5006246;28;19925;-69
2022/09/23 14:26:47;;;;;;;;;;;18.70;99.90;;;;;;4995850;28;19930;-68
2022/09/23 14:29:16;;;;;;;;;;;18.70;99.90;;;;;;5010351;28;19929;-69
2022/09/23 14:31:55;;;;;;;;;;;18.80;99.90;;;;;;4997383;28;20328;-69
2022/09/23 14:34:45;;;;;;;;;;;18.80;99.90;;;;;;4992503;28;19926;-70
2022/09/23 14:40:15;;;;;;;;;;;18.70;99.90;;;;;;4995155;28;20091;-70
2022/09/23 14:42:45;;;;;;;;;;;18.70;99.90;;;;;;5004273;28;19967;-70
2022/09/23 14:45:14;;;;;;;;;;;18.60;99.90;;;;;;4997873;28;19926;-69
2022/09/23 14:47:43;;;;;;;;;;;18.60;99.90;;;;;;4995817;28;19933;-69
2022/09/23 14:52:58;;;;;;;;;;;18.60;99.90;;;;;;5000486;28;19926;-69